sensor_id;sensor_type;location;lat;lon;timestamp;pressure;altitude;pressure_sealevel;temperature;humidity
71805;BME280;59654;52.216;5.616;2023-05-21T00:00:08;101739.81;;;13.81;69.46
71805;BME280;59654;52.216;5.616;2023-05-21T00:00:42;101733.53;;;13.82;70.14
71805;BME280;59654;52.216;5.616;2023-05-21T00:01:13;101738.78;;;13.85;69.27
71805;BME280;59654;52.216;5.616;2023-05-21T00:01:45;101739.72;;;13.84;69.21
71805;BME280;59654;52.216;5.616;2023-05-21T00:02:17;101738.78;;;13.85;69.41
71805;BME280;59654;52.216;5.616;2023-05-21T00:02:49;101736.09;;;13.85;70.20
71805;BME280;59654;52.216;5.616;2023-05-21T00:03:20;101734.41;;;13.82;70.68
71805;BME280;59654;52.216;5.616;2023-05-21T00:03:53;101726.31;;;13.84;70.11
71805;BME280;59654;52.216;5.616;2023-05-21T00:04:24;101730.84;;;13.82;69.95
71805;BME280;59654;52.216;5.616;2023-05-21T00:04:55;101729.09;;;13.81;70.27
71805;BME280;59654;52.216;5.616;2023-05-21T00:05:26;101731.78;;;13.81;69.96
71805;BME280;59654;52.216;5.616;2023-05-21T00:05:57;101729.97;;;13.81;70.04
71805;BME280;59654;52.216;5.616;2023-05-21T00:06:30;101735.41;;;13.79;69.94
71805;BME280;59654;52.216;5.616;2023-05-21T00:07:02;101727.34;;;13.79;70.03
71805;BME280;59654;52.216;5.616;2023-05-21T00:07:33;101726.41;;;13.81;70.73
71805;BME280;59654;52.216;5.616;2023-05-21T00:08:04;101730.97;;;13.78;70.19
71805;BME280;59654;52.216;5.616;2023-05-21T00:08:35;101729.09;;;13.81;70.65
71805;BME280;59654;52.216;5.616;2023-05-21T00:09:06;101736.28;;;13.80;70.59
71805;BME280;59654;52.216;5.616;2023-05-21T00:09:37;101726.38;;;13.82;69.76
71805;BME280;59654;52.216;5.616;2023-05-21T00:10:09;101735.44;;;13.78;70.64
71805;BME280;59654;52.216;5.616;2023-05-21T00:10:40;101727.41;;;13.78;71.01
71805;BME280;59654;52.216;5.616;2023-05-21T00:11:11;101726.59;;;13.76;70.73
71805;BME280;59654;52.216;5.616;2023-05-21T00:11:42;101732.06;;;13.73;70.36
71805;BME280;59654;52.216;5.616;2023-05-21T00:12:13;101733.03;;;13.72;70.85
71805;BME280;59654;52.216;5.616;2023-05-21T00:12:43;101728.44;;;13.74;70.73
71805;BME280;59654;52.216;5.616;2023-05-21T00:13:14;101726.69;;;13.73;70.48
71805;BME280;59654;52.216;5.616;2023-05-21T00:13:45;101729.47;;;13.71;71.10
71805;BME280;59654;52.216;5.616;2023-05-21T00:14:16;101725.81;;;13.72;71.56
71805;BME280;59654;52.216;5.616;2023-05-21T00:14:47;101723.09;;;13.74;71.14
71805;BME280;59654;52.216;5.616;2023-05-21T00:15:17;101724.00;;;13.73;70.79
71805;BME280;59654;52.216;5.616;2023-05-21T00:15:48;101721.34;;;13.73;70.02
71805;BME280;59654;52.216;5.616;2023-05-21T00:16:19;101724.88;;;13.73;70.04
71805;BME280;59654;52.216;5.616;2023-05-21T00:16:50;101726.63;;;13.74;70.69
71805;BME280;59654;52.216;5.616;2023-05-21T00:17:21;101721.28;;;13.74;70.83
71805;BME280;59654;52.216;5.616;2023-05-21T00:17:53;101724.88;;;13.73;70.99
71805;BME280;59654;52.216;5.616;2023-05-21T00:18:23;101723.09;;;13.74;71.34
71805;BME280;59654;52.216;5.616;2023-05-21T00:18:57;101722.16;;;13.75;70.97
71805;BME280;59654;52.216;5.616;2023-05-21T00:19:28;101721.22;;;13.76;70.95
71805;BME280;59654;52.216;5.616;2023-05-21T00:19:59;101723.97;;;13.74;71.53
71805;BME280;59654;52.216;5.616;2023-05-21T00:20:31;101723.03;;;13.75;70.97
71805;BME280;59654;52.216;5.616;2023-05-21T00:21:02;101719.41;;;13.76;71.84
71805;BME280;59654;52.216;5.616;2023-05-21T00:21:33;101722.09;;;13.76;70.80
71805;BME280;59654;52.216;5.616;2023-05-21T00:22:04;101721.16;;;13.77;71.55
71805;BME280;59654;52.216;5.616;2023-05-21T00:22:35;101723.84;;;13.77;71.46
71805;BME280;59654;52.216;5.616;2023-05-21T00:23:06;101723.84;;;13.77;71.17
71805;BME280;59654;52.216;5.616;2023-05-21T00:23:37;101721.22;;;13.76;70.83
71805;BME280;59654;52.216;5.616;2023-05-21T00:24:09;101729.25;;;13.76;71.23
71805;BME280;59654;52.216;5.616;2023-05-21T00:24:40;101728.28;;;13.78;70.36
71805;BME280;59654;52.216;5.616;2023-05-21T00:25:11;101726.41;;;13.81;71.28
71805;BME280;59654;52.216;5.616;2023-05-21T00:25:42;101723.75;;;13.81;71.24
71805;BME280;59654;52.216;5.616;2023-05-21T00:26:12;101726.38;;;13.82;70.41
71805;BME280;59654;52.216;5.616;2023-05-21T00:26:45;101726.38;;;13.82;70.79
71805;BME280;59654;52.216;5.616;2023-05-21T00:27:16;101712.91;;;13.84;71.25
71805;BME280;59654;52.216;5.616;2023-05-21T00:27:47;101717.28;;;13.86;71.23
71805;BME280;59654;52.216;5.616;2023-05-21T00:28:18;101722.50;;;13.89;69.86
71805;BME280;59654;52.216;5.616;2023-05-21T00:28:49;101719.91;;;13.88;70.17
71805;BME280;59654;52.216;5.616;2023-05-21T00:29:20;101719.91;;;13.88;70.01
71805;BME280;59654;52.216;5.616;2023-05-21T00:29:52;101714.56;;;13.88;70.39
71805;BME280;59654;52.216;5.616;2023-05-21T00:30:22;101717.28;;;13.86;69.86
71805;BME280;59654;52.216;5.616;2023-05-21T00:30:53;101712.81;;;13.87;70.28
71805;BME280;59654;52.216;5.616;2023-05-21T00:31:24;101715.44;;;13.88;70.61
71805;BME280;59654;52.216;5.616;2023-05-21T00:31:55;101706.50;;;13.88;71.00
71805;BME280;59654;52.216;5.616;2023-05-21T00:32:26;101707.53;;;13.84;70.62
71805;BME280;59654;52.216;5.616;2023-05-21T00:32:57;101712.03;;;13.83;70.28
71805;BME280;59654;52.216;5.616;2023-05-21T00:33:28;101715.53;;;13.85;70.39
71805;BME280;59654;52.216;5.616;2023-05-21T00:34:00;101712.03;;;13.83;70.61
71805;BME280;59654;52.216;5.616;2023-05-21T00:34:31;101708.47;;;13.83;70.46
71805;BME280;59654;52.216;5.616;2023-05-21T00:35:02;101709.34;;;13.83;70.52
71805;BME280;59654;52.216;5.616;2023-05-21T00:35:33;101707.66;;;13.81;71.28
71805;BME280;59654;52.216;5.616;2023-05-21T00:36:04;101708.53;;;13.81;70.79
71805;BME280;59654;52.216;5.616;2023-05-21T00:36:35;101711.22;;;13.81;70.65
71805;BME280;59654;52.216;5.616;2023-05-21T00:37:06;101708.59;;;13.79;70.74
71805;BME280;59654;52.216;5.616;2023-05-21T00:37:39;101712.19;;;13.78;71.52
71805;BME280;59654;52.216;5.616;2023-05-21T00:38:10;101716.69;;;13.78;70.47
71805;BME280;59654;52.216;5.616;2023-05-21T00:38:41;101706.84;;;13.78;71.07
71805;BME280;59654;52.216;5.616;2023-05-21T00:39:13;101714.06;;;13.76;71.31
71805;BME280;59654;52.216;5.616;2023-05-21T00:39:44;101716.75;;;13.76;70.47
71805;BME280;59654;52.216;5.616;2023-05-21T00:40:15;101709.69;;;13.74;71.72
71805;BME280;59654;52.216;5.616;2023-05-21T00:40:49;101708.03;;;13.71;71.61
71805;BME280;59654;52.216;5.616;2023-05-21T00:41:20;101712.38;;;13.74;71.15
71805;BME280;59654;52.216;5.616;2023-05-21T00:41:52;101711.56;;;13.72;71.43
71805;BME280;59654;52.216;5.616;2023-05-21T00:42:23;101703.59;;;13.70;71.43
71805;BME280;59654;52.216;5.616;2023-05-21T00:42:56;101708.94;;;13.70;71.32
71805;BME280;59654;52.216;5.616;2023-05-21T00:43:27;101714.31;;;13.70;71.20
71805;BME280;59654;52.216;5.616;2023-05-21T00:43:58;101712.56;;;13.69;72.25
71805;BME280;59654;52.216;5.616;2023-05-21T00:44:29;101712.63;;;13.68;72.11
71805;BME280;59654;52.216;5.616;2023-05-21T00:45:05;101712.63;;;13.68;71.51
71805;BME280;59654;52.216;5.616;2023-05-21T00:45:36;101706.38;;;13.67;72.37
71805;BME280;59654;52.216;5.616;2023-05-21T00:46:10;101707.31;;;13.66;72.30
71805;BME280;59654;52.216;5.616;2023-05-21T00:46:43;101701.94;;;13.66;72.37
71805;BME280;59654;52.216;5.616;2023-05-21T00:47:14;101703.75;;;13.66;71.98
71805;BME280;59654;52.216;5.616;2023-05-21T00:47:47;101705.63;;;13.64;72.01
71805;BME280;59654;52.216;5.616;2023-05-21T00:48:19;101704.72;;;13.63;71.52
71805;BME280;59654;52.216;5.616;2023-05-21T00:48:51;101710.16;;;13.60;72.22
71805;BME280;59654;52.216;5.616;2023-05-21T00:49:22;101699.44;;;13.60;72.28
71805;BME280;59654;52.216;5.616;2023-05-21T00:49:54;101702.19;;;13.59;72.47
71805;BME280;59654;52.216;5.616;2023-05-21T00:50:25;101710.22;;;13.59;72.45
71805;BME280;59654;52.216;5.616;2023-05-21T00:50:56;101697.91;;;13.55;72.29
71805;BME280;59654;52.216;5.616;2023-05-21T00:51:27;101704.13;;;13.55;72.35
71805;BME280;59654;52.216;5.616;2023-05-21T00:51:59;101696.19;;;13.52;71.88
71805;BME280;59654;52.216;5.616;2023-05-21T00:52:31;101697.94;;;13.53;71.99
71805;BME280;59654;52.216;5.616;2023-05-21T00:53:02;101697.13;;;13.51;72.11
71805;BME280;59654;52.216;5.616;2023-05-21T00:53:32;101701.66;;;13.49;73.46
71805;BME280;59654;52.216;5.616;2023-05-21T00:54:07;101703.56;;;13.45;73.01
71805;BME280;59654;52.216;5.616;2023-05-21T00:54:40;101700.00;;;13.45;73.29
71805;BME280;59654;52.216;5.616;2023-05-21T00:55:11;101692.91;;;13.44;72.33
71805;BME280;59654;52.216;5.616;2023-05-21T00:55:42;101696.41;;;13.46;73.08
71805;BME280;59654;52.216;5.616;2023-05-21T00:56:13;101694.66;;;13.45;72.97
71805;BME280;59654;52.216;5.616;2023-05-21T00:56:46;101691.09;;;13.44;73.45
71805;BME280;59654;52.216;5.616;2023-05-21T00:57:22;101694.59;;;13.47;72.65
71805;BME280;59654;52.216;5.616;2023-05-21T00:57:55;101693.72;;;13.46;72.62
71805;BME280;59654;52.216;5.616;2023-05-21T00:58:26;101693.72;;;13.46;72.12
71805;BME280;59654;52.216;5.616;2023-05-21T00:58:58;101697.34;;;13.45;71.95
71805;BME280;59654;52.216;5.616;2023-05-21T00:59:31;101696.50;;;13.43;72.37
71805;BME280;59654;52.216;5.616;2023-05-21T01:00:04;101699.19;;;13.43;72.89
71805;BME280;59654;52.216;5.616;2023-05-21T01:00:40;101690.19;;;13.45;73.28
71805;BME280;59654;52.216;5.616;2023-05-21T01:01:11;101691.09;;;13.44;72.79
71805;BME280;59654;52.216;5.616;2023-05-21T01:01:43;101691.97;;;13.45;72.90
71805;BME280;59654;52.216;5.616;2023-05-21T01:02:23;101695.47;;;13.47;72.58
71805;BME280;59654;52.216;5.616;2023-05-21T01:02:55;101690.94;;;13.49;73.24
71805;BME280;59654;52.216;5.616;2023-05-21T01:03:26;101681.09;;;13.50;73.05
71805;BME280;59654;52.216;5.616;2023-05-21T01:04:00;101693.56;;;13.51;72.82
71805;BME280;59654;52.216;5.616;2023-05-21T01:04:31;101683.72;;;13.51;73.18
71805;BME280;59654;52.216;5.616;2023-05-21T01:05:03;101690.00;;;13.50;72.67
71805;BME280;59654;52.216;5.616;2023-05-21T01:05:37;101686.47;;;13.50;72.48
71805;BME280;59654;52.216;5.616;2023-05-21T01:06:09;101693.69;;;13.48;73.50
71805;BME280;59654;52.216;5.616;2023-05-21T01:06:40;101690.00;;;13.50;72.98
71805;BME280;59654;52.216;5.616;2023-05-21T01:07:12;101689.91;;;13.53;73.43
71805;BME280;59654;52.216;5.616;2023-05-21T01:07:44;101695.28;;;13.53;72.81
71805;BME280;59654;52.216;5.616;2023-05-21T01:08:16;101693.53;;;13.52;73.74
71805;BME280;59654;52.216;5.616;2023-05-21T01:08:48;101689.09;;;13.51;73.21
71805;BME280;59654;52.216;5.616;2023-05-21T01:09:20;101694.44;;;13.51;73.22
71805;BME280;59654;52.216;5.616;2023-05-21T01:09:52;101685.53;;;13.51;72.51
71805;BME280;59654;52.216;5.616;2023-05-21T01:10:25;101690.94;;;13.49;73.01
71805;BME280;59654;52.216;5.616;2023-05-21T01:10:58;101687.44;;;13.47;72.39
71805;BME280;59654;52.216;5.616;2023-05-21T01:12:10;101684.75;;;13.47;73.09
71805;BME280;59654;52.216;5.616;2023-05-21T01:12:43;101692.81;;;13.47;72.89
71805;BME280;59654;52.216;5.616;2023-05-21T01:13:16;101686.63;;;13.45;72.54
71805;BME280;59654;52.216;5.616;2023-05-21T01:13:49;101690.06;;;13.49;73.50
71805;BME280;59654;52.216;5.616;2023-05-21T01:14:21;101695.53;;;13.45;72.71
71805;BME280;59654;52.216;5.616;2023-05-21T01:14:55;101690.19;;;13.45;73.72
71805;BME280;59654;52.216;5.616;2023-05-21T01:15:27;101684.00;;;13.43;73.19
71805;BME280;59654;52.216;5.616;2023-05-21T01:15:59;101693.78;;;13.44;73.74
71805;BME280;59654;52.216;5.616;2023-05-21T01:16:30;101683.13;;;13.43;73.23
71805;BME280;59654;52.216;5.616;2023-05-21T01:17:02;101683.16;;;13.41;73.59
71805;BME280;59654;52.216;5.616;2023-05-21T01:17:35;101677.75;;;13.43;73.63
71805;BME280;59654;52.216;5.616;2023-05-21T01:18:07;101688.53;;;13.41;73.81
71805;BME280;59654;52.216;5.616;2023-05-21T01:18:39;101681.38;;;13.42;73.64
71805;BME280;59654;52.216;5.616;2023-05-21T01:19:19;101678.75;;;13.40;73.43
71805;BME280;59654;52.216;5.616;2023-05-21T01:19:51;101683.22;;;13.40;73.22
71805;BME280;59654;52.216;5.616;2023-05-21T01:20:23;101686.78;;;13.40;74.12
71805;BME280;59654;52.216;5.616;2023-05-21T01:20:54;101684.03;;;13.42;73.27
71805;BME280;59654;52.216;5.616;2023-05-21T01:21:28;101688.59;;;13.40;74.18
71805;BME280;59654;52.216;5.616;2023-05-21T01:22:03;101682.44;;;13.38;74.06
71805;BME280;59654;52.216;5.616;2023-05-21T01:23:18;101688.72;;;13.37;73.25
71805;BME280;59654;52.216;5.616;2023-05-21T01:23:49;101682.50;;;13.36;73.74
71805;BME280;59654;52.216;5.616;2023-05-21T01:24:20;101679.03;;;13.33;74.29
71805;BME280;59654;52.216;5.616;2023-05-21T01:24:53;101680.75;;;13.35;73.45
71805;BME280;59654;52.216;5.616;2023-05-21T01:25:25;101687.03;;;13.34;73.19
71805;BME280;59654;52.216;5.616;2023-05-21T01:25:56;101679.81;;;13.36;74.24
71805;BME280;59654;52.216;5.616;2023-05-21T01:26:27;101680.78;;;13.34;74.61
71805;BME280;59654;52.216;5.616;2023-05-21T01:27:01;101678.13;;;13.34;74.42
71805;BME280;59654;52.216;5.616;2023-05-21T01:27:33;101675.44;;;13.34;74.08
71805;BME280;59654;52.216;5.616;2023-05-21T01:28:04;101678.13;;;13.34;73.70
71805;BME280;59654;52.216;5.616;2023-05-21T01:28:35;101675.44;;;13.34;73.53
71805;BME280;59654;52.216;5.616;2023-05-21T01:29:06;101672.75;;;13.34;74.47
71805;BME280;59654;52.216;5.616;2023-05-21T01:29:42;101674.56;;;13.33;74.62
71805;BME280;59654;52.216;5.616;2023-05-21T01:30:15;101677.13;;;13.36;73.98
71805;BME280;59654;52.216;5.616;2023-05-21T01:30:47;101670.84;;;13.37;75.12
71805;BME280;59654;52.216;5.616;2023-05-21T01:31:46;101673.53;;;13.37;74.15
71805;BME280;59654;52.216;5.616;2023-05-21T01:32:37;101678.13;;;13.34;74.58
71805;BME280;59654;52.216;5.616;2023-05-21T01:33:40;101674.25;;;13.41;74.27
71805;BME280;59654;52.216;5.616;2023-05-21T01:34:21;101674.44;;;13.36;74.14
71805;BME280;59654;52.216;5.616;2023-05-21T01:35:11;101674.44;;;13.36;74.07
71805;BME280;59654;52.216;5.616;2023-05-21T01:35:59;101678.00;;;13.37;74.62
71805;BME280;59654;52.216;5.616;2023-05-21T01:36:40;101677.19;;;13.35;74.23
71805;BME280;59654;52.216;5.616;2023-05-21T01:37:29;101672.69;;;13.35;74.16
71805;BME280;59654;52.216;5.616;2023-05-21T01:39:02;101673.38;;;13.40;74.32
71805;BME280;59654;52.216;5.616;2023-05-21T01:39:43;101669.72;;;13.43;73.99
71805;BME280;59654;52.216;5.616;2023-05-21T01:41:26;101669.50;;;13.49;73.85
71805;BME280;59654;52.216;5.616;2023-05-21T01:41:59;101671.38;;;13.47;74.12
71805;BME280;59654;52.216;5.616;2023-05-21T01:42:35;101670.59;;;13.43;74.50
71805;BME280;59654;52.216;5.616;2023-05-21T01:43:10;101669.72;;;13.43;74.46
71805;BME280;59654;52.216;5.616;2023-05-21T01:43:45;101667.16;;;13.40;73.49
71805;BME280;59654;52.216;5.616;2023-05-21T01:44:18;101669.84;;;13.40;74.29
71805;BME280;59654;52.216;5.616;2023-05-21T01:44:55;101671.78;;;13.36;74.89
71805;BME280;59654;52.216;5.616;2023-05-21T01:45:30;101668.22;;;13.36;74.54
71805;BME280;59654;52.216;5.616;2023-05-21T01:46:04;101670.03;;;13.35;74.23
71805;BME280;59654;52.216;5.616;2023-05-21T01:46:37;101670.91;;;13.36;74.89
71805;BME280;59654;52.216;5.616;2023-05-21T01:47:09;101670.94;;;13.34;75.12
71805;BME280;59654;52.216;5.616;2023-05-21T01:47:44;101671.88;;;13.33;74.30
71805;BME280;59654;52.216;5.616;2023-05-21T01:48:18;101671.88;;;13.33;74.54
71805;BME280;59654;52.216;5.616;2023-05-21T01:48:51;101675.59;;;13.29;75.24
71805;BME280;59654;52.216;5.616;2023-05-21T01:49:24;101672.97;;;13.28;75.57
71805;BME280;59654;52.216;5.616;2023-05-21T01:49:55;101667.59;;;13.28;75.61
71805;BME280;59654;52.216;5.616;2023-05-21T01:50:28;101668.59;;;13.25;74.92
71805;BME280;59654;52.216;5.616;2023-05-21T01:51:03;101664.06;;;13.27;74.99
71805;BME280;59654;52.216;5.616;2023-05-21T01:51:36;101666.84;;;13.24;75.84
71805;BME280;59654;52.216;5.616;2023-05-21T01:52:07;101665.22;;;13.20;75.71
71805;BME280;59654;52.216;5.616;2023-05-21T01:52:47;101663.41;;;13.21;76.12
71805;BME280;59654;52.216;5.616;2023-05-21T01:53:19;101658.13;;;13.19;75.94
71805;BME280;59654;52.216;5.616;2023-05-21T01:53:51;101660.84;;;13.18;76.25
71805;BME280;59654;52.216;5.616;2023-05-21T01:54:22;101663.47;;;13.19;75.67
71805;BME280;59654;52.216;5.616;2023-05-21T01:54:55;101659.00;;;13.20;76.26
71805;BME280;59654;52.216;5.616;2023-05-21T01:55:26;101665.22;;;13.20;76.36
71805;BME280;59654;52.216;5.616;2023-05-21T01:56:00;101667.03;;;13.20;76.34
71805;BME280;59654;52.216;5.616;2023-05-21T01:56:32;101674.19;;;13.19;76.79
71805;BME280;59654;52.216;5.616;2023-05-21T01:57:03;101672.50;;;13.17;76.07
71805;BME280;59654;52.216;5.616;2023-05-21T01:57:34;101663.53;;;13.18;75.92
71805;BME280;59654;52.216;5.616;2023-05-21T01:58:05;101672.44;;;13.18;76.52
71805;BME280;59654;52.216;5.616;2023-05-21T01:58:36;101671.56;;;13.18;76.63
71805;BME280;59654;52.216;5.616;2023-05-21T01:59:07;101669.88;;;13.15;76.11
71805;BME280;59654;52.216;5.616;2023-05-21T01:59:38;101667.28;;;13.12;76.66
71805;BME280;59654;52.216;5.616;2023-05-21T02:00:10;101659.34;;;13.09;77.04
71805;BME280;59654;52.216;5.616;2023-05-21T02:00:47;101665.78;;;13.05;77.14
71805;BME280;59654;52.216;5.616;2023-05-21T02:01:20;101673.97;;;13.00;77.73
71805;BME280;59654;52.216;5.616;2023-05-21T02:01:51;101675.81;;;12.98;78.06
71805;BME280;59654;52.216;5.616;2023-05-21T02:02:22;101667.88;;;12.95;77.74
71805;BME280;59654;52.216;5.616;2023-05-21T02:02:53;101667.88;;;12.95;77.79
71805;BME280;59654;52.216;5.616;2023-05-21T02:03:25;101665.09;;;12.98;77.76
71805;BME280;59654;52.216;5.616;2023-05-21T02:03:57;101667.72;;;13.00;77.37
71805;BME280;59654;52.216;5.616;2023-05-21T02:04:28;101667.69;;;13.01;77.38
71805;BME280;59654;52.216;5.616;2023-05-21T02:04:59;101660.56;;;13.00;77.47
71805;BME280;59654;52.216;5.616;2023-05-21T02:05:30;101661.44;;;13.01;78.00
71805;BME280;59654;52.216;5.616;2023-05-21T02:06:01;101665.09;;;12.98;78.50
71805;BME280;59654;52.216;5.616;2023-05-21T02:06:32;101662.44;;;12.98;78.03
71805;BME280;59654;52.216;5.616;2023-05-21T02:07:05;101659.81;;;12.97;78.45
71805;BME280;59654;52.216;5.616;2023-05-21T02:07:36;101661.69;;;12.93;78.49
71805;BME280;59654;52.216;5.616;2023-05-21T02:08:07;101658.97;;;12.95;78.09
71805;BME280;59654;52.216;5.616;2023-05-21T02:08:38;101659.91;;;12.94;78.11
71805;BME280;59654;52.216;5.616;2023-05-21T02:09:09;101666.91;;;12.98;77.86
71805;BME280;59654;52.216;5.616;2023-05-21T02:09:40;101661.59;;;12.96;78.12
71805;BME280;59654;52.216;5.616;2023-05-21T02:10:11;101659.03;;;12.93;78.18
71805;BME280;59654;52.216;5.616;2023-05-21T02:10:42;101663.50;;;12.93;78.83
71805;BME280;59654;52.216;5.616;2023-05-21T02:11:13;101661.69;;;12.93;78.77
71805;BME280;59654;52.216;5.616;2023-05-21T02:11:44;101660.78;;;12.94;78.79
71805;BME280;59654;52.216;5.616;2023-05-21T02:12:15;101660.72;;;12.96;78.96
71805;BME280;59654;52.216;5.616;2023-05-21T02:12:46;101661.69;;;12.93;78.50
71805;BME280;59654;52.216;5.616;2023-05-21T02:13:17;101659.03;;;12.93;79.07
71805;BME280;59654;52.216;5.616;2023-05-21T02:13:51;101659.81;;;12.97;78.63
71805;BME280;59654;52.216;5.616;2023-05-21T02:14:24;101662.38;;;13.00;78.48
71805;BME280;59654;52.216;5.616;2023-05-21T02:14:54;101660.56;;;13.00;78.14
71805;BME280;59654;52.216;5.616;2023-05-21T02:15:25;101663.19;;;13.02;78.29
71805;BME280;59654;52.216;5.616;2023-05-21T02:15:56;101657.91;;;13.00;77.99
71805;BME280;59654;52.216;5.616;2023-05-21T02:16:27;101652.59;;;12.99;77.90
71805;BME280;59654;52.216;5.616;2023-05-21T02:16:59;101658.81;;;12.99;78.01
71805;BME280;59654;52.216;5.616;2023-05-21T02:17:30;101659.69;;;13.00;78.58
71805;BME280;59654;52.216;5.616;2023-05-21T02:18:03;101653.53;;;12.98;78.03
71805;BME280;59654;52.216;5.616;2023-05-21T02:18:34;101660.69;;;12.97;78.51
71805;BME280;59654;52.216;5.616;2023-05-21T02:19:05;101656.31;;;12.95;78.89
71805;BME280;59654;52.216;5.616;2023-05-21T02:19:36;101653.81;;;12.90;79.18
71805;BME280;59654;52.216;5.616;2023-05-21T02:20:07;101656.41;;;12.92;78.94
71805;BME280;59654;52.216;5.616;2023-05-21T02:20:41;101655.66;;;12.88;78.92
71805;BME280;59654;52.216;5.616;2023-05-21T02:21:13;101658.34;;;12.88;79.34
71805;BME280;59654;52.216;5.616;2023-05-21T02:21:44;101659.22;;;12.89;79.09
71805;BME280;59654;52.216;5.616;2023-05-21T02:22:15;101652.97;;;12.88;79.55
71805;BME280;59654;52.216;5.616;2023-05-21T02:22:47;101654.00;;;12.84;79.58
71805;BME280;59654;52.216;5.616;2023-05-21T02:23:18;101659.41;;;12.83;80.03
71805;BME280;59654;52.216;5.616;2023-05-21T02:23:49;101649.63;;;12.82;79.92
71805;BME280;59654;52.216;5.616;2023-05-21T02:24:20;101656.84;;;12.80;80.32
71805;BME280;59654;52.216;5.616;2023-05-21T02:24:51;101657.72;;;12.80;80.10
71805;BME280;59654;52.216;5.616;2023-05-21T02:25:22;101658.59;;;12.81;79.74
71805;BME280;59654;52.216;5.616;2023-05-21T02:25:53;101653.28;;;12.79;80.35
71805;BME280;59654;52.216;5.616;2023-05-21T02:26:24;101661.34;;;12.78;79.95
71805;BME280;59654;52.216;5.616;2023-05-21T02:26:55;101661.41;;;12.76;80.01
71805;BME280;59654;52.216;5.616;2023-05-21T02:27:26;101657.06;;;12.73;80.14
71805;BME280;59654;52.216;5.616;2023-05-21T02:27:58;101653.56;;;12.71;80.34
71805;BME280;59654;52.216;5.616;2023-05-21T02:28:30;101658.97;;;12.70;80.84
71805;BME280;59654;52.216;5.616;2023-05-21T02:29:02;101662.50;;;12.70;80.93
71805;BME280;59654;52.216;5.616;2023-05-21T02:29:33;101659.88;;;12.69;80.86
71805;BME280;59654;52.216;5.616;2023-05-21T02:30:06;101658.03;;;12.71;80.49
71805;BME280;59654;52.216;5.616;2023-05-21T02:30:41;101654.50;;;12.70;80.72
71805;BME280;59654;52.216;5.616;2023-05-21T02:31:12;101658.13;;;12.68;80.25
71805;BME280;59654;52.216;5.616;2023-05-21T02:31:43;101657.25;;;12.67;80.82
71805;BME280;59654;52.216;5.616;2023-05-21T02:32:14;101657.25;;;12.67;80.87
71805;BME280;59654;52.216;5.616;2023-05-21T02:32:47;101656.28;;;12.70;80.74
71805;BME280;59654;52.216;5.616;2023-05-21T02:33:19;101660.72;;;12.71;80.74
71805;BME280;59654;52.216;5.616;2023-05-21T02:33:51;101654.38;;;12.73;81.08
71805;BME280;59654;52.216;5.616;2023-05-21T02:34:22;101651.72;;;12.73;80.29
71805;BME280;59654;52.216;5.616;2023-05-21T02:34:54;101649.97;;;12.72;80.86
71805;BME280;59654;52.216;5.616;2023-05-21T02:35:25;101659.75;;;12.73;80.27
71805;BME280;59654;52.216;5.616;2023-05-21T02:35:56;101649.09;;;12.72;80.67
71805;BME280;59654;52.216;5.616;2023-05-21T02:36:27;101664.38;;;12.68;80.16
71805;BME280;59654;52.216;5.616;2023-05-21T02:36:58;101659.94;;;12.67;81.08
71805;BME280;59654;52.216;5.616;2023-05-21T02:37:30;101657.34;;;12.64;80.90
71805;BME280;59654;52.216;5.616;2023-05-21T02:38:04;101661.75;;;12.67;81.57
71805;BME280;59654;52.216;5.616;2023-05-21T02:38:35;101657.31;;;12.66;81.09
71805;BME280;59654;52.216;5.616;2023-05-21T02:39:07;101656.34;;;12.68;80.80
71805;BME280;59654;52.216;5.616;2023-05-21T02:39:38;101663.38;;;12.71;80.98
71805;BME280;59654;52.216;5.616;2023-05-21T02:40:10;101659.84;;;12.70;80.86
71805;BME280;59654;52.216;5.616;2023-05-21T02:40:41;101657.25;;;12.67;80.61
71805;BME280;59654;52.216;5.616;2023-05-21T02:41:12;101652.88;;;12.65;81.11
71805;BME280;59654;52.216;5.616;2023-05-21T02:41:44;101663.63;;;12.63;81.37
71805;BME280;59654;52.216;5.616;2023-05-21T02:42:16;101657.50;;;12.60;81.62
71805;BME280;59654;52.216;5.616;2023-05-21T02:42:47;101659.25;;;12.61;82.04
71805;BME280;59654;52.216;5.616;2023-05-21T02:43:22;101664.66;;;12.59;82.13
71805;BME280;59654;52.216;5.616;2023-05-21T02:43:53;101662.09;;;12.56;82.38
71805;BME280;59654;52.216;5.616;2023-05-21T02:44:23;101658.63;;;12.53;82.20
71805;BME280;59654;52.216;5.616;2023-05-21T02:44:55;101661.25;;;12.54;82.34
71805;BME280;59654;52.216;5.616;2023-05-21T02:45:27;101656.75;;;12.56;82.33
71805;BME280;59654;52.216;5.616;2023-05-21T02:45:58;101661.25;;;12.54;82.27
71805;BME280;59654;52.216;5.616;2023-05-21T02:46:30;101655.06;;;12.52;82.60
71805;BME280;59654;52.216;5.616;2023-05-21T02:47:01;101657.75;;;12.52;83.00
71805;BME280;59654;52.216;5.616;2023-05-21T02:47:32;101653.38;;;12.50;83.25
71805;BME280;59654;52.216;5.616;2023-05-21T02:48:03;101661.38;;;12.50;83.52
71805;BME280;59654;52.216;5.616;2023-05-21T02:48:38;101655.13;;;12.51;82.83
71805;BME280;59654;52.216;5.616;2023-05-21T02:49:09;101655.16;;;12.49;83.16
71805;BME280;59654;52.216;5.616;2023-05-21T02:49:40;101656.91;;;12.50;82.94
71805;BME280;59654;52.216;5.616;2023-05-21T02:50:13;101658.72;;;12.50;82.61
71805;BME280;59654;52.216;5.616;2023-05-21T02:51:00;101656.91;;;12.50;82.94
71805;BME280;59654;52.216;5.616;2023-05-21T02:51:31;101656.09;;;12.48;82.92
71805;BME280;59654;52.216;5.616;2023-05-21T02:52:02;101653.47;;;12.47;82.75
71805;BME280;59654;52.216;5.616;2023-05-21T02:52:34;101654.34;;;12.47;82.75
71805;BME280;59654;52.216;5.616;2023-05-21T02:53:05;101652.59;;;12.46;82.91